sensor_id;sensor_type;location;lat;lon;timestamp;pressure;altitude;pressure_sealevel;temperature;humidity
14120;BME280;7138;49.246;9.100;2023-07-02T00:00:31;98057.28;;;20.17;95.84
14120;BME280;7138;49.246;9.100;2023-07-02T00:02:59;98062.56;;;20.17;95.66
14120;BME280;7138;49.246;9.100;2023-07-02T00:05:25;98063.72;;;20.12;95.86
14120;BME280;7138;49.246;9.100;2023-07-02T00:07:52;98062.16;;;20.08;96.21
14120;BME280;7138;49.246;9.100;2023-07-02T00:10:18;98071.19;;;20.02;96.51
14120;BME280;7138;49.246;9.100;2023-07-02T00:12:44;98073.09;;;19.99;96.86
14120;BME280;7138;49.246;9.100;2023-07-02T00:15:10;98081.72;;;20.01;96.81
14120;BME280;7138;49.246;9.100;2023-07-02T00:17:36;98080.09;;;19.98;96.58
14120;BME280;7138;49.246;9.100;2023-07-02T00:20:07;98082.03;;;19.95;97.11
14120;BME280;7138;49.246;9.100;2023-07-02T00:22:39;98078.53;;;19.94;97.33
14120;BME280;7138;49.246;9.100;2023-07-02T00:25:08;98083.88;;;19.93;97.84
14120;BME280;7138;49.246;9.100;2023-07-02T00:27:34;98086.56;;;19.91;97.82
14120;BME280;7138;49.246;9.100;2023-07-02T00:30:00;98079.66;;;19.90;98.54
14120;BME280;7138;49.246;9.100;2023-07-02T00:32:26;98079.22;;;19.81;99.91
14120;BME280;7138;49.246;9.100;2023-07-02T00:34:52;98078.59;;;19.76;100.00
14120;BME280;7138;49.246;9.100;2023-07-02T00:37:17;98086.38;;;19.77;100.00
14120;BME280;7138;49.246;9.100;2023-07-02T00:39:43;98084.75;;;19.75;100.00
14120;BME280;7138;49.246;9.100;2023-07-02T00:42:11;98084.06;;;19.71;100.00
14120;BME280;7138;49.246;9.100;2023-07-02T00:44:38;98085.06;;;19.69;100.00
14120;BME280;7138;49.246;9.100;2023-07-02T00:47:06;98086.81;;;19.68;100.00
14120;BME280;7138;49.246;9.100;2023-07-02T00:49:32;98083.19;;;19.71;100.00
14120;BME280;7138;49.246;9.100;2023-07-02T00:51:59;98090.00;;;19.75;100.00
14120;BME280;7138;49.246;9.100;2023-07-02T00:54:28;98088.97;;;19.79;100.00
14120;BME280;7138;49.246;9.100;2023-07-02T00:56:54;98089.88;;;19.78;100.00
14120;BME280;7138;49.246;9.100;2023-07-02T00:59:21;98093.41;;;19.77;100.00
14120;BME280;7138;49.246;9.100;2023-07-02T01:01:47;98097.78;;;19.76;100.00
14120;BME280;7138;49.246;9.100;2023-07-02T01:04:18;98091.63;;;19.77;100.00
14120;BME280;7138;49.246;9.100;2023-07-02T01:06:44;98089.16;;;19.74;100.00
14120;BME280;7138;49.246;9.100;2023-07-02T01:09:11;98097.94;;;19.73;100.00
14120;BME280;7138;49.246;9.100;2023-07-02T01:11:40;98090.16;;;19.72;100.00
14120;BME280;7138;49.246;9.100;2023-07-02T01:14:11;98089.44;;;19.68;100.00
14120;BME280;7138;49.246;9.100;2023-07-02T01:16:42;98097.41;;;19.67;100.00
14120;BME280;7138;49.246;9.100;2023-07-02T01:19:15;98098.38;;;19.64;100.00
14120;BME280;7138;49.246;9.100;2023-07-02T01:21:46;98097.97;;;19.54;100.00
14120;BME280;7138;49.246;9.100;2023-07-02T01:24:13;98094.69;;;19.49;100.00
14120;BME280;7138;49.246;9.100;2023-07-02T01:26:40;98100.06;;;19.46;100.00
14120;BME280;7138;49.246;9.100;2023-07-02T01:29:16;98093.00;;;19.48;100.00
14120;BME280;7138;49.246;9.100;2023-07-02T01:31:43;98082.44;;;19.50;100.00
14120;BME280;7138;49.246;9.100;2023-07-02T01:34:09;98088.44;;;19.52;100.00
14120;BME280;7138;49.246;9.100;2023-07-02T01:36:35;98089.31;;;19.52;100.00
14120;BME280;7138;49.246;9.100;2023-07-02T01:39:03;98087.53;;;19.53;100.00
14120;BME280;7138;49.246;9.100;2023-07-02T01:41:29;98085.06;;;19.50;100.00
14120;BME280;7138;49.246;9.100;2023-07-02T01:43:55;98086.69;;;19.52;100.00
14120;BME280;7138;49.246;9.100;2023-07-02T01:46:21;98083.19;;;19.52;100.00
14120;BME280;7138;49.246;9.100;2023-07-02T01:48:47;98085.00;;;19.51;100.00
14120;BME280;7138;49.246;9.100;2023-07-02T01:51:13;98095.25;;;19.56;99.92
14120;BME280;7138;49.246;9.100;2023-07-02T01:53:39;98097.84;;;19.57;99.71
14120;BME280;7138;49.246;9.100;2023-07-02T01:56:06;98094.13;;;19.61;99.32
14120;BME280;7138;49.246;9.100;2023-07-02T01:58:32;98102.84;;;19.62;99.35
14120;BME280;7138;49.246;9.100;2023-07-02T02:00:58;98095.88;;;19.61;99.18
14120;BME280;7138;49.246;9.100;2023-07-02T02:03:24;98108.03;;;19.63;98.81
14120;BME280;7138;49.246;9.100;2023-07-02T02:05:49;98113.28;;;19.63;98.60
14120;BME280;7138;49.246;9.100;2023-07-02T02:08:15;98103.63;;;19.64;98.50
14120;BME280;7138;49.246;9.100;2023-07-02T02:10:41;98111.72;;;19.59;98.29
14120;BME280;7138;49.246;9.100;2023-07-02T02:13:08;98112.47;;;19.61;98.33
14120;BME280;7138;49.246;9.100;2023-07-02T02:15:34;98122.06;;;19.62;98.01
14120;BME280;7138;49.246;9.100;2023-07-02T02:18:00;98114.47;;;19.56;97.94
14120;BME280;7138;49.246;9.100;2023-07-02T02:20:26;98116.09;;;19.59;97.65
14120;BME280;7138;49.246;9.100;2023-07-02T02:22:52;98114.25;;;19.61;97.40
14120;BME280;7138;49.246;9.100;2023-07-02T02:25:18;98122.84;;;19.64;96.86
14120;BME280;7138;49.246;9.100;2023-07-02T02:27:44;98115.34;;;19.57;95.77
14120;BME280;7138;49.246;9.100;2023-07-02T02:30:11;98117.97;;;19.57;94.67
14120;BME280;7138;49.246;9.100;2023-07-02T02:32:37;98113.72;;;19.54;94.50
14120;BME280;7138;49.246;9.100;2023-07-02T02:35:03;98120.63;;;19.55;93.59
14120;BME280;7138;49.246;9.100;2023-07-02T02:37:29;98114.34;;;19.59;93.20
14120;BME280;7138;49.246;9.100;2023-07-02T02:39:56;98121.28;;;19.60;92.33
14120;BME280;7138;49.246;9.100;2023-07-02T02:42:24;98122.25;;;19.58;89.84
14120;BME280;7138;49.246;9.100;2023-07-02T02:44:50;98123.50;;;19.51;88.38
14120;BME280;7138;49.246;9.100;2023-07-02T02:47:18;98120.91;;;19.49;87.99
14120;BME280;7138;49.246;9.100;2023-07-02T02:49:43;98120.91;;;19.49;87.60
14120;BME280;7138;49.246;9.100;2023-07-02T02:52:09;98123.25;;;19.55;87.72
14120;BME280;7138;49.246;9.100;2023-07-02T02:54:35;98119.09;;;19.51;86.55
14120;BME280;7138;49.246;9.100;2023-07-02T02:57:01;98124.34;;;19.51;86.42
14120;BME280;7138;49.246;9.100;2023-07-02T02:59:27;98122.63;;;19.50;86.13
14120;BME280;7138;49.246;9.100;2023-07-02T03:01:53;98125.88;;;19.55;86.00
14120;BME280;7138;49.246;9.100;2023-07-02T03:04:21;98116.38;;;19.53;86.43
14120;BME280;7138;49.246;9.100;2023-07-02T03:06:52;98125.16;;;19.52;86.05
14120;BME280;7138;49.246;9.100;2023-07-02T03:09:21;98127.59;;;19.56;86.36
14120;BME280;7138;49.246;9.100;2023-07-02T03:11:47;98116.25;;;19.56;86.50
14120;BME280;7138;49.246;9.100;2023-07-02T03:14:13;98128.88;;;19.67;86.19
14120;BME280;7138;49.246;9.100;2023-07-02T03:16:41;98132.41;;;19.66;85.64
14120;BME280;7138;49.246;9.100;2023-07-02T03:19:07;98118.81;;;19.57;86.07
14120;BME280;7138;49.246;9.100;2023-07-02T03:21:34;98133.31;;;19.64;85.82
14120;BME280;7138;49.246;9.100;2023-07-02T03:24:00;98138.53;;;19.66;86.18
14120;BME280;7138;49.246;9.100;2023-07-02T03:26:26;98133.19;;;19.68;85.48
14120;BME280;7138;49.246;9.100;2023-07-02T03:28:52;98131.41;;;19.68;85.61
14120;BME280;7138;49.246;9.100;2023-07-02T03:31:18;98137.72;;;19.64;85.26
14120;BME280;7138;49.246;9.100;2023-07-02T03:33:44;98136.81;;;19.65;85.40
14120;BME280;7138;49.246;9.100;2023-07-02T03:36:09;98140.28;;;19.66;85.25
14120;BME280;7138;49.246;9.100;2023-07-02T03:38:37;98144.63;;;19.67;85.57
14120;BME280;7138;49.246;9.100;2023-07-02T03:41:02;98142.91;;;19.66;85.11
14120;BME280;7138;49.246;9.100;2023-07-02T03:43:28;98143.97;;;19.61;84.97
14120;BME280;7138;49.246;9.100;2023-07-02T03:45:54;98146.72;;;19.58;84.87
14120;BME280;7138;49.246;9.100;2023-07-02T03:48:20;98148.50;;;19.58;84.78
14120;BME280;7138;49.246;9.100;2023-07-02T03:50:46;98149.56;;;19.54;84.90
14120;BME280;7138;49.246;9.100;2023-07-02T03:53:12;98156.63;;;19.52;85.15
14120;BME280;7138;49.246;9.100;2023-07-02T03:55:39;98160.34;;;19.48;85.46
14120;BME280;7138;49.246;9.100;2023-07-02T03:58:05;98165.78;;;19.43;86.10
14120;BME280;7138;49.246;9.100;2023-07-02T04:00:31;98165.78;;;19.43;86.42
14120;BME280;7138;49.246;9.100;2023-07-02T04:02:58;98167.53;;;19.43;86.36
14120;BME280;7138;49.246;9.100;2023-07-02T04:05:23;98172.75;;;19.44;86.70
14120;BME280;7138;49.246;9.100;2023-07-02T04:07:49;98169.22;;;19.45;86.96
14120;BME280;7138;49.246;9.100;2023-07-02T04:10:15;98175.41;;;19.43;86.96
14120;BME280;7138;49.246;9.100;2023-07-02T04:12:42;98170.03;;;19.46;87.39
14120;BME280;7138;49.246;9.100;2023-07-02T04:15:09;98180.53;;;19.46;87.12
14120;BME280;7138;49.246;9.100;2023-07-02T04:17:35;98179.56;;;19.48;87.11
14120;BME280;7138;49.246;9.100;2023-07-02T04:20:02;98182.19;;;19.48;86.09
14120;BME280;7138;49.246;9.100;2023-07-02T04:22:29;98183.09;;;19.47;86.28
14120;BME280;7138;49.246;9.100;2023-07-02T04:24:56;98182.09;;;19.50;86.29
14120;BME280;7138;49.246;9.100;2023-07-02T04:27:21;98183.72;;;19.52;86.43
14120;BME280;7138;49.246;9.100;2023-07-02T04:29:49;98182.94;;;19.50;86.74
14120;BME280;7138;49.246;9.100;2023-07-02T04:32:15;98193.34;;;19.52;87.39
14120;BME280;7138;49.246;9.100;2023-07-02T04:34:41;98204.72;;;19.52;87.06
14120;BME280;7138;49.246;9.100;2023-07-02T04:37:08;98198.56;;;19.53;87.40
14120;BME280;7138;49.246;9.100;2023-07-02T04:39:34;98198.59;;;19.52;87.91
14120;BME280;7138;49.246;9.100;2023-07-02T04:42:00;98196.66;;;19.57;87.78
14120;BME280;7138;49.246;9.100;2023-07-02T04:44:26;98211.44;;;19.58;88.05
14120;BME280;7138;49.246;9.100;2023-07-02T04:46:58;98208.00;;;19.57;88.28
14120;BME280;7138;49.246;9.100;2023-07-02T04:49:24;98210.53;;;19.59;88.38
14120;BME280;7138;49.246;9.100;2023-07-02T04:51:50;98207.72;;;19.63;88.38
14120;BME280;7138;49.246;9.100;2023-07-02T04:54:16;98216.56;;;19.61;88.58
14120;BME280;7138;49.246;9.100;2023-07-02T04:56:42;98212.88;;;19.65;88.61
14120;BME280;7138;49.246;9.100;2023-07-02T04:59:08;98217.13;;;19.68;88.47
14120;BME280;7138;49.246;9.100;2023-07-02T05:01:34;98214.38;;;19.71;88.43
14120;BME280;7138;49.246;9.100;2023-07-02T05:04:01;98213.47;;;19.72;88.52
14120;BME280;7138;49.246;9.100;2023-07-02T05:06:27;98211.47;;;19.77;88.51
14120;BME280;7138;49.246;9.100;2023-07-02T05:08:52;98211.28;;;20.00;87.83
14120;BME280;7138;49.246;9.100;2023-07-02T05:11:18;98215.22;;;20.46;86.26
14120;BME280;7138;49.246;9.100;2023-07-02T05:13:44;98220.50;;;20.99;83.27
14120;BME280;7138;49.246;9.100;2023-07-02T05:16:10;98218.91;;;21.63;81.65
14120;BME280;7138;49.246;9.100;2023-07-02T05:18:36;98225.81;;;22.14;78.25
14120;BME280;7138;49.246;9.100;2023-07-02T05:21:03;98225.16;;;22.58;75.70
14120;BME280;7138;49.246;9.100;2023-07-02T05:23:29;98230.94;;;22.64;74.24
14120;BME280;7138;49.246;9.100;2023-07-02T05:25:55;98231.09;;;22.77;73.80
14120;BME280;7138;49.246;9.100;2023-07-02T05:28:21;98237.38;;;22.74;73.60
14120;BME280;7138;49.246;9.100;2023-07-02T05:30:46;98232.28;;;22.56;73.18
14120;BME280;7138;49.246;9.100;2023-07-02T05:33:12;98241.13;;;22.23;73.07
14120;BME280;7138;49.246;9.100;2023-07-02T05:35:38;98240.59;;;22.01;73.79
14120;BME280;7138;49.246;9.100;2023-07-02T05:38:06;98244.59;;;21.75;74.37
14120;BME280;7138;49.246;9.100;2023-07-02T05:40:31;98245.88;;;21.51;73.59
14120;BME280;7138;49.246;9.100;2023-07-02T05:42:57;98237.66;;;21.40;75.41
14120;BME280;7138;49.246;9.100;2023-07-02T05:45:23;98238.63;;;21.22;76.79
14120;BME280;7138;49.246;9.100;2023-07-02T05:47:49;98243.84;;;21.05;77.54
14120;BME280;7138;49.246;9.100;2023-07-02T05:50:15;98248.66;;;20.97;78.43
14120;BME280;7138;49.246;9.100;2023-07-02T05:52:41;98238.91;;;20.82;78.11
14120;BME280;7138;49.246;9.100;2023-07-02T05:55:09;98240.34;;;20.70;78.17
14120;BME280;7138;49.246;9.100;2023-07-02T05:57:37;98243.91;;;20.86;78.51
14120;BME280;7138;49.246;9.100;2023-07-02T06:00:05;98252.56;;;21.24;76.92
14120;BME280;7138;49.246;9.100;2023-07-02T06:02:32;98246.50;;;21.89;75.99
14120;BME280;7138;49.246;9.100;2023-07-02T06:04:58;98250.75;;;22.71;74.26
14120;BME280;7138;49.246;9.100;2023-07-02T06:07:25;98238.38;;;23.47;70.83
14120;BME280;7138;49.246;9.100;2023-07-02T06:09:50;98250.47;;;24.36;69.46
14120;BME280;7138;49.246;9.100;2023-07-02T06:12:18;98244.88;;;25.08;68.13
14120;BME280;7138;49.246;9.100;2023-07-02T06:14:43;98253.78;;;25.84;65.88
14120;BME280;7138;49.246;9.100;2023-07-02T06:17:09;98255.97;;;26.41;64.60
14120;BME280;7138;49.246;9.100;2023-07-02T06:19:36;98258.00;;;26.97;61.82
14120;BME280;7138;49.246;9.100;2023-07-02T06:22:03;98264.25;;;27.44;61.07
14120;BME280;7138;49.246;9.100;2023-07-02T06:24:29;98257.78;;;27.59;61.15
14120;BME280;7138;49.246;9.100;2023-07-02T06:26:55;98263.84;;;27.83;60.05
14120;BME280;7138;49.246;9.100;2023-07-02T06:29:23;98275.38;;;28.39;59.36
14120;BME280;7138;49.246;9.100;2023-07-02T06:31:49;98265.31;;;28.76;57.49
14120;BME280;7138;49.246;9.100;2023-07-02T06:34:15;98272.13;;;29.01;56.54
14120;BME280;7138;49.246;9.100;2023-07-02T06:36:41;98263.59;;;29.18;56.64
14120;BME280;7138;49.246;9.100;2023-07-02T06:39:07;98262.00;;;29.15;55.79
14120;BME280;7138;49.246;9.100;2023-07-02T06:41:34;98264.94;;;29.12;56.10
14120;BME280;7138;49.246;9.100;2023-07-02T06:44:00;98278.63;;;28.76;54.43
14120;BME280;7138;49.246;9.100;2023-07-02T06:46:28;98272.56;;;28.63;56.39
14120;BME280;7138;49.246;9.100;2023-07-02T06:48:54;98273.09;;;28.35;56.15
14120;BME280;7138;49.246;9.100;2023-07-02T06:51:20;98279.81;;;27.94;55.90
14120;BME280;7138;49.246;9.100;2023-07-02T06:53:47;98273.72;;;27.70;56.94
14120;BME280;7138;49.246;9.100;2023-07-02T06:56:13;98273.41;;;27.75;57.49
14120;BME280;7138;49.246;9.100;2023-07-02T06:58:42;98275.53;;;27.69;56.61
14120;BME280;7138;49.246;9.100;2023-07-02T07:01:09;98277.47;;;27.67;57.59
14120;BME280;7138;49.246;9.100;2023-07-02T07:03:36;98269.00;;;27.28;56.18
14120;BME280;7138;49.246;9.100;2023-07-02T07:06:02;98277.88;;;27.15;57.29
14120;BME280;7138;49.246;9.100;2023-07-02T07:08:28;98277.22;;;27.01;57.41
14120;BME280;7138;49.246;9.100;2023-07-02T07:10:54;98286.38;;;26.48;57.23
14120;BME280;7138;49.246;9.100;2023-07-02T07:13:20;98280.19;;;26.24;58.99
14120;BME280;7138;49.246;9.100;2023-07-02T07:15:46;98281.03;;;25.86;58.40
14120;BME280;7138;49.246;9.100;2023-07-02T07:18:12;98278.28;;;25.75;59.60
14120;BME280;7138;49.246;9.100;2023-07-02T07:20:42;98282.31;;;25.68;59.92
14120;BME280;7138;49.246;9.100;2023-07-02T07:23:08;98281.50;;;25.41;59.59
14120;BME280;7138;49.246;9.100;2023-07-02T07:25:34;98260.38;;;25.27;60.66
14120;BME280;7138;49.246;9.100;2023-07-02T07:28:00;98282.66;;;25.37;60.74
14120;BME280;7138;49.246;9.100;2023-07-02T07:30:26;98285.94;;;25.40;61.31
14120;BME280;7138;49.246;9.100;2023-07-02T07:32:53;98287.91;;;25.24;59.09
14120;BME280;7138;49.246;9.100;2023-07-02T07:35:21;98281.75;;;25.24;61.62
14120;BME280;7138;49.246;9.100;2023-07-02T07:37:51;98290.47;;;25.26;60.98
14120;BME280;7138;49.246;9.100;2023-07-02T07:40:17;98293.97;;;25.39;60.35
14120;BME280;7138;49.246;9.100;2023-07-02T07:42:42;98288.03;;;25.35;60.13
14120;BME280;7138;49.246;9.100;2023-07-02T07:45:10;98295.44;;;25.30;59.66
14120;BME280;7138;49.246;9.100;2023-07-02T07:47:37;98294.38;;;25.33;61.19
14120;BME280;7138;49.246;9.100;2023-07-02T07:50:06;98295.63;;;25.54;62.14
14120;BME280;7138;49.246;9.100;2023-07-02T07:52:39;98294.56;;;25.57;59.54
14120;BME280;7138;49.246;9.100;2023-07-02T07:55:07;98278.59;;;25.19;58.77
14120;BME280;7138;49.246;9.100;2023-07-02T07:57:35;98292.34;;;25.24;59.82
14120;BME280;7138;49.246;9.100;2023-07-02T08:00:02;98296.06;;;25.21;59.61
14120;BME280;7138;49.246;9.100;2023-07-02T08:02:29;98288.03;;;25.23;60.70
14120;BME280;7138;49.246;9.100;2023-07-02T08:04:55;98275.66;;;25.36;62.11
14120;BME280;7138;49.246;9.100;2023-07-02T08:07:21;98283.75;;;25.47;60.26
14120;BME280;7138;49.246;9.100;2023-07-02T08:09:48;98279.22;;;25.49;58.84
14120;BME280;7138;49.246;9.100;2023-07-02T08:12:15;98287.53;;;25.43;57.15
14120;BME280;7138;49.246;9.100;2023-07-02T08:14:41;98275.03;;;25.45;58.40
14120;BME280;7138;49.246;9.100;2023-07-02T08:17:07;98274.19;;;25.44;58.98
14120;BME280;7138;49.246;9.100;2023-07-02T08:19:32;98283.56;;;25.50;58.87
14120;BME280;7138;49.246;9.100;2023-07-02T08:21:58;98293.44;;;25.34;58.54
14120;BME280;7138;49.246;9.100;2023-07-02T08:24:24;98281.94;;;25.08;58.30
14120;BME280;7138;49.246;9.100;2023-07-02T08:26:50;98280.94;;;24.96;59.41
14120;BME280;7138;49.246;9.100;2023-07-02T08:29:17;98283.19;;;25.02;59.56
14120;BME280;7138;49.246;9.100;2023-07-02T08:31:43;98280.25;;;25.07;59.50
14120;BME280;7138;49.246;9.100;2023-07-02T08:34:09;98282.81;;;25.21;59.10
14120;BME280;7138;49.246;9.100;2023-07-02T08:36:35;98291.63;;;25.22;59.66
14120;BME280;7138;49.246;9.100;2023-07-02T08:39:01;98294.78;;;25.27;59.17
14120;BME280;7138;49.246;9.100;2023-07-02T08:41:28;98290.69;;;25.35;60.07
14120;BME280;7138;49.246;9.100;2023-07-02T08:43:55;98303.72;;;25.38;59.15
14120;BME280;7138;49.246;9.100;2023-07-02T08:46:23;98287.75;;;25.40;56.90
14120;BME280;7138;49.246;9.100;2023-07-02T08:48:49;98303.84;;;25.37;57.78
14120;BME280;7138;49.246;9.100;2023-07-02T08:51:15;98291.38;;;25.51;58.34
14120;BME280;7138;49.246;9.100;2023-07-02T08:53:41;98287.53;;;25.43;57.98
14120;BME280;7138;49.246;9.100;2023-07-02T08:56:07;98320.78;;;25.34;58.29
14120;BME280;7138;49.246;9.100;2023-07-02T08:58:33;98295.56;;;25.29;58.77
14120;BME280;7138;49.246;9.100;2023-07-02T09:01:10;98293.97;;;25.39;59.89
14120;BME280;7138;49.246;9.100;2023-07-02T09:03:38;98313.69;;;25.35;59.21
14120;BME280;7138;49.246;9.100;2023-07-02T09:06:05;98314.09;;;25.41;59.13
14120;BME280;7138;49.246;9.100;2023-07-02T09:08:32;98306.00;;;25.18;59.29
14120;BME280;7138;49.246;9.100;2023-07-02T09:11:09;98315.03;;;25.28;60.23
14120;BME280;7138;49.246;9.100;2023-07-02T09:13:48;98326.28;;;25.31;58.24
14120;BME280;7138;49.246;9.100;2023-07-02T09:16:22;98318.16;;;25.20;58.72
14120;BME280;7138;49.246;9.100;2023-07-02T09:18:58;98312.28;;;25.29;59.67
14120;BME280;7138;49.246;9.100;2023-07-02T09:21:26;98312.59;;;25.25;58.42
14120;BME280;7138;49.246;9.100;2023-07-02T09:23:53;98314.50;;;25.23;59.13
14120;BME280;7138;49.246;9.100;2023-07-02T09:26:23;98324.69;;;25.29;59.55
14120;BME280;7138;49.246;9.100;2023-07-02T09:28:49;98319.78;;;25.23;59.21
14120;BME280;7138;49.246;9.100;2023-07-02T09:31:15;98322.25;;;25.26;59.26
14120;BME280;7138;49.246;9.100;2023-07-02T09:33:42;98329.75;;;25.05;59.37
14120;BME280;7138;49.246;9.100;2023-07-02T09:36:10;98332.56;;;24.75;60.11
14120;BME280;7138;49.246;9.100;2023-07-02T09:38:37;98341.47;;;24.60;60.93
14120;BME280;7138;49.246;9.100;2023-07-02T09:41:03;98337.50;;;24.53;61.29
14120;BME280;7138;49.246;9.100;2023-07-02T09:43:31;98338.56;;;24.51;61.14
14120;BME280;7138;49.246;9.100;2023-07-02T09:45:58;98333.75;;;24.43;62.10
14120;BME280;7138;49.246;9.100;2023-07-02T09:48:28;98334.97;;;24.52;62.54
14120;BME280;7138;49.246;9.100;2023-07-02T09:50:57;98333.19;;;24.52;61.59
14120;BME280;7138;49.246;9.100;2023-07-02T09:53:28;98333.38;;;24.49;60.81
14120;BME280;7138;49.246;9.100;2023-07-02T09:55:53;98331.47;;;24.51;61.36
14120;BME280;7138;49.246;9.100;2023-07-02T09:58:20;98335.25;;;24.33;60.91
14120;BME280;7138;49.246;9.100;2023-07-02T10:00:46;98335.09;;;24.22;61.50
14120;BME280;7138;49.246;9.100;2023-07-02T10:03:12;98328.66;;;24.26;62.83
14120;BME280;7138;49.246;9.100;2023-07-02T10:05:38;98333.56;;;24.32;62.45
14120;BME280;7138;49.246;9.100;2023-07-02T10:08:13;98333.56;;;24.32;61.21
14120;BME280;7138;49.246;9.100;2023-07-02T10:10:41;98331.13;;;24.43;62.56
14120;BME280;7138;49.246;9.100;2023-07-02T10:13:07;98328.25;;;24.60;61.00
14120;BME280;7138;49.246;9.100;2023-07-02T10:15:33;98325.31;;;24.65;60.74
14120;BME280;7138;49.246;9.100;2023-07-02T10:18:04;98335.97;;;24.63;61.05
14120;BME280;7138;49.246;9.100;2023-07-02T10:20:34;98327.63;;;24.42;61.53
14120;BME280;7138;49.246;9.100;2023-07-02T10:23:01;98336.88;;;24.21;62.11
14120;BME280;7138;49.246;9.100;2023-07-02T10:25:31;98333.88;;;24.13;61.97
14120;BME280;7138;49.246;9.100;2023-07-02T10:28:01;98338.09;;;24.16;61.99
14120;BME280;7138;49.246;9.100;2023-07-02T10:30:31;98343.75;;;24.24;60.87
14120;BME280;7138;49.246;9.100;2023-07-02T10:33:07;98336.38;;;24.29;61.38
14120;BME280;7138;49.246;9.100;2023-07-02T10:35:35;98334.31;;;24.34;60.90
14120;BME280;7138;49.246;9.100;2023-07-02T10:38:01;98333.75;;;24.29;61.26
14120;BME280;7138;49.246;9.100;2023-07-02T10:40:27;98334.31;;;24.34;62.17
14120;BME280;7138;49.246;9.100;2023-07-02T10:42:53;98329.97;;;24.33;61.87
14120;BME280;7138;49.246;9.100;2023-07-02T10:45:31;98324.31;;;24.39;62.70
14120;BME280;7138;49.246;9.100;2023-07-02T10:47:57;98331.75;;;24.32;61.80
14120;BME280;7138;49.246;9.100;2023-07-02T10:50:23;98341.78;;;24.27;62.10
14120;BME280;7138;49.246;9.100;2023-07-02T10:52:49;98333.16;;;24.38;62.44
14120;BME280;7138;49.246;9.100;2023-07-02T10:55:18;98327.69;;;24.41;62.65
14120;BME280;7138;49.246;9.100;2023-07-02T10:57:44;98333.91;;;24.54;62.38
14120;BME280;7138;49.246;9.100;2023-07-02T11:00:12;98330.69;;;24.63;61.99
14120;BME280;7138;49.246;9.100;2023-07-02T11:02:40;98334.84;;;24.67;61.87
14120;BME280;7138;49.246;9.100;2023-07-02T11:05:07;98335.97;;;24.77;60.29
14120;BME280;7138;49.246;9.100;2023-07-02T11:07:38;98324.72;;;24.88;60.30
14120;BME280;7138;49.246;9.100;2023-07-02T11:10:05;98320.63;;;24.96;58.62
14120;BME280;7138;49.246;9.100;2023-07-02T11:12:31;98313.72;;;25.21;59.55
14120;BME280;7138;49.246;9.100;2023-07-02T11:15:07;98311.91;;;25.48;58.11
14120;BME280;7138;49.246;9.100;2023-07-02T11:17:34;98308.81;;;25.68;57.45
14120;BME280;7138;49.246;9.100;2023-07-02T11:20:01;98310.50;;;25.82;56.78
14120;BME280;7138;49.246;9.100;2023-07-02T11:22:31;98303.94;;;26.00;55.40
14120;BME280;7138;49.246;9.100;2023-07-02T11:25:10;98303.63;;;26.04;54.49
14120;BME280;7138;49.246;9.100;2023-07-02T11:27:35;98312.72;;;26.13;55.88
14120;BME280;7138;49.246;9.100;2023-07-02T11:30:02;98320.81;;;26.24;57.05
14120;BME280;7138;49.246;9.100;2023-07-02T11:32:28;98315.41;;;26.38;56.85
14120;BME280;7138;49.246;9.100;2023-07-02T11:34:55;98318.88;;;26.39;55.47
14120;BME280;7138;49.246;9.100;2023-07-02T11:37:22;98318.78;;;26.28;55.76
14120;BME280;7138;49.246;9.100;2023-07-02T11:39:48;98318.78;;;26.28;56.76
14120;BME280;7138;49.246;9.100;2023-07-02T11:42:14;98324.22;;;26.26;55.61
14120;BME280;7138;49.246;9.100;2023-07-02T11:44:40;98310.19;;;26.24;56.89
14120;BME280;7138;49.246;9.100;2023-07-02T11:47:06;98307.75;;;26.34;56.51
14120;BME280;7138;49.246;9.100;2023-07-02T11:49:32;98311.78;;;26.27;55.26
14120;BME280;7138;49.246;9.100;2023-07-02T11:51:58;98307.31;;;26.15;54.84
14120;BME280;7138;49.246;9.100;2023-07-02T11:54:25;98307.13;;;26.18;55.80
14120;BME280;7138;49.246;9.100;2023-07-02T11:56:51;98305.66;;;26.26;57.41
14120;BME280;7138;49.246;9.100;2023-07-02T11:59:17;98301.09;;;26.28;54.77
14120;BME280;7138;49.246;9.100;2023-07-02T12:01:43;98302.16;;;26.26;55.04
14120;BME280;7138;49.246;9.100;2023-07-02T12:04:10;98299.50;;;26.38;55.51
14120;BME280;7138;49.246;9.100;2023-07-02T12:06:37;98298.19;;;26.44;54.63
14120;BME280;7138;49.246;9.100;2023-07-02T12:09:03;98287.47;;;26.45;54.83
14120;BME280;7138;49.246;9.100;2023-07-02T12:11:30;98284.69;;;26.59;56.88
14120;BME280;7138;49.246;9.100;2023-07-02T12:13:56;98282.31;;;26.68;54.77
14120;BME280;7138;49.246;9.100;2023-07-02T12:16:22;98286.63;;;26.81;53.87
14120;BME280;7138;49.246;9.100;2023-07-02T12:18:48;98283.44;;;26.89;54.07
14120;BME280;7138;49.246;9.100;2023-07-02T12:21:14;98285.97;;;26.90;54.18
14120;BME280;7138;49.246;9.100;2023-07-02T12:23:40;98284.56;;;26.97;53.91
14120;BME280;7138;49.246;9.100;2023-07-02T12:26:05;98284.59;;;27.08;54.38
14120;BME280;7138;49.246;9.100;2023-07-02T12:28:32;98290.03;;;27.07;53.60
14120;BME280;7138;49.246;9.100;2023-07-02T12:30:58;98286.88;;;27.02;54.01
14120;BME280;7138;49.246;9.100;2023-07-02T12:33:24;98286.19;;;26.87;54.12
14120;BME280;7138;49.246;9.100;2023-07-02T12:35:50;98285.72;;;26.93;55.05
14120;BME280;7138;49.246;9.100;2023-07-02T12:38:16;98285.69;;;27.06;56.13
14120;BME280;7138;49.246;9.100;2023-07-02T12:40:41;98286.06;;;27.12;53.57
14120;BME280;7138;49.246;9.100;2023-07-02T12:43:07;98280.59;;;27.27;53.95
14120;BME280;7138;49.246;9.100;2023-07-02T12:45:34;98283.03;;;27.30;53.51
14120;BME280;7138;49.246;9.100;2023-07-02T12:48:00;98283.03;;;27.30;52.92
14120;BME280;7138;49.246;9.100;2023-07-02T12:50:26;98277.38;;;27.10;52.45
14120;BME280;7138;49.246;9.100;2023-07-02T12:52:52;98290.59;;;26.99;53.25
14120;BME280;7138;49.246;9.100;2023-07-02T12:55:18;98278.97;;;26.89;53.52
14120;BME280;7138;49.246;9.100;2023-07-02T12:57:44;98278.38;;;26.73;53.26
14120;BME280;7138;49.246;9.100;2023-07-02T13:00:11;98282.69;;;26.50;52.62
14120;BME280;7138;49.246;9.100;2023-07-02T13:02:38;98289.47;;;26.42;54.26
14120;BME280;7138;49.246;9.100;2023-07-02T13:05:05;98290.97;;;26.46;53.49
14120;BME280;7138;49.246;9.100;2023-07-02T13:07:31;98285.88;;;26.43;54.39